createdAt,value
2017-10-19T00:00:57.210Z,1002.51
2017-10-19T00:01:57.202Z,1002.55
2017-10-19T00:02:57.208Z,1002.58
2017-10-19T00:03:57.200Z,1002.54
2017-10-19T00:04:57.199Z,1002.54
2017-10-19T00:05:57.197Z,1002.56
2017-10-19T00:06:57.196Z,1002.53
2017-10-19T00:07:57.195Z,1002.52
2017-10-19T00:08:57.192Z,1002.51
2017-10-19T00:09:57.192Z,1002.53
2017-10-19T00:10:57.191Z,1002.56
2017-10-19T00:11:57.188Z,1002.56
2017-10-19T00:12:57.191Z,1002.57
2017-10-19T00:13:57.187Z,1002.57
2017-10-19T00:14:57.187Z,1002.56
2017-10-19T00:15:57.184Z,1002.53
2017-10-19T00:16:57.181Z,1002.56
2017-10-19T00:17:57.180Z,1002.64
2017-10-19T00:18:57.185Z,1002.66
2017-10-19T00:19:57.181Z,1002.70
2017-10-19T00:20:57.178Z,1002.68
2017-10-19T00:21:57.174Z,1002.68
2017-10-19T00:22:57.172Z,1002.65
2017-10-19T00:23:57.172Z,1002.71
2017-10-19T00:24:57.169Z,1002.66
2017-10-19T00:25:57.169Z,1002.69
2017-10-19T00:26:57.167Z,1002.69
2017-10-19T00:27:57.165Z,1002.68
2017-10-19T00:28:57.165Z,1002.68
2017-10-19T00:29:57.163Z,1002.70
2017-10-19T00:30:57.161Z,1002.68
2017-10-19T00:31:57.160Z,1002.73
2017-10-19T00:32:57.158Z,1002.70
2017-10-19T00:33:57.156Z,1002.65
2017-10-19T00:34:57.157Z,1002.66
2017-10-19T00:35:57.153Z,1002.64
2017-10-19T00:36:57.151Z,1002.63
2017-10-19T00:37:57.149Z,1002.64
2017-10-19T00:38:57.148Z,1002.64
2017-10-19T00:39:57.149Z,1002.67
2017-10-19T00:40:57.143Z,1002.61
2017-10-19T00:41:57.143Z,1002.64
2017-10-19T00:42:57.142Z,1002.65
2017-10-19T00:43:57.141Z,1002.63
2017-10-19T00:44:57.137Z,1002.67
2017-10-19T00:45:57.137Z,1002.68
2017-10-19T00:46:57.136Z,1002.70
2017-10-19T00:47:57.133Z,1002.66
2017-10-19T00:48:57.132Z,1002.67
2017-10-19T00:49:57.131Z,1002.71
2017-10-19T00:50:57.130Z,1002.72
2017-10-19T00:51:57.128Z,1002.72
2017-10-19T00:52:57.127Z,1002.73
2017-10-19T00:53:57.123Z,1002.71
2017-10-19T00:54:57.125Z,1002.68
2017-10-19T00:55:57.121Z,1002.64
2017-10-19T00:56:57.119Z,1002.66
2017-10-19T00:57:57.117Z,1002.66
2017-10-19T00:58:57.117Z,1002.68
2017-10-19T00:59:57.115Z,1002.64
2017-10-19T01:00:57.112Z,1002.64
2017-10-19T01:01:57.110Z,1002.65
2017-10-19T01:02:57.111Z,1002.63
2017-10-19T01:03:57.106Z,1002.64
2017-10-19T01:04:57.106Z,1002.67
2017-10-19T01:05:57.104Z,1002.70
2017-10-19T01:06:57.102Z,1002.65
2017-10-19T01:07:57.099Z,1002.67
2017-10-19T01:08:57.099Z,1002.68
2017-10-19T01:09:57.096Z,1002.66
2017-10-19T01:10:57.095Z,1002.67
2017-10-19T01:11:57.094Z,1002.68
2017-10-19T01:12:57.093Z,1002.63
2017-10-19T01:13:57.089Z,1002.63
2017-10-19T01:14:57.088Z,1002.67
2017-10-19T01:15:57.088Z,1002.61
2017-10-19T01:16:57.112Z,1002.61
2017-10-19T01:17:57.089Z,1002.59
2017-10-19T01:18:57.083Z,1002.58
2017-10-19T01:19:57.081Z,1002.63
2017-10-19T01:20:57.077Z,1002.65
2017-10-19T01:21:57.076Z,1002.60
2017-10-19T01:22:57.075Z,1002.62
2017-10-19T01:23:57.074Z,1002.61
2017-10-19T01:24:57.072Z,1002.55
2017-10-19T01:25:57.070Z,1002.56
2017-10-19T01:26:57.069Z,1002.49
2017-10-19T01:27:57.067Z,1002.53
2017-10-19T01:28:57.064Z,1002.46
2017-10-19T01:29:57.063Z,1002.43
2017-10-19T01:30:57.063Z,1002.39
2017-10-19T01:31:57.061Z,1002.44
2017-10-19T01:32:57.058Z,1002.44
2017-10-19T01:33:57.055Z,1002.41
2017-10-19T01:34:57.056Z,1002.45
2017-10-19T01:35:57.053Z,1002.44
2017-10-19T01:36:57.051Z,1002.43
2017-10-19T01:37:57.049Z,1002.44
2017-10-19T01:38:57.047Z,1002.48
2017-10-19T01:39:57.046Z,1002.48
2017-10-19T01:40:57.045Z,1002.46
2017-10-19T01:41:57.041Z,1002.45
2017-10-19T01:42:57.041Z,1002.51
2017-10-19T01:43:57.039Z,1002.47
2017-10-19T01:44:57.042Z,1002.46
2017-10-19T01:45:57.034Z,1002.46
2017-10-19T01:46:57.034Z,1002.43
2017-10-19T01:47:57.033Z,1002.40
2017-10-19T01:48:57.028Z,1002.37
2017-10-19T01:49:57.027Z,1002.38
2017-10-19T01:50:57.025Z,1002.39
2017-10-19T01:51:57.030Z,1002.39
2017-10-19T01:52:57.022Z,1002.41
2017-10-19T01:53:57.020Z,1002.36
2017-10-19T01:54:57.021Z,1002.40
2017-10-19T01:55:57.017Z,1002.43
2017-10-19T01:56:57.015Z,1002.40
2017-10-19T01:57:57.017Z,1002.37
2017-10-19T01:58:57.009Z,1002.41
2017-10-19T01:59:57.008Z,1002.41
2017-10-19T02:00:57.006Z,1002.38
2017-10-19T02:01:57.005Z,1002.38
2017-10-19T02:02:57.002Z,1002.32
2017-10-19T02:03:57.002Z,1002.34
2017-10-19T02:04:56.999Z,1002.36
2017-10-19T02:05:57.004Z,1002.31
2017-10-19T02:06:56.995Z,1002.37
2017-10-19T02:07:56.994Z,1002.35
2017-10-19T02:08:56.991Z,1002.40
2017-10-19T02:09:56.990Z,1002.35
2017-10-19T02:10:56.989Z,1002.41
2017-10-19T02:11:56.985Z,1002.38
2017-10-19T02:12:56.984Z,1002.39
2017-10-19T02:13:56.984Z,1002.37
2017-10-19T02:14:56.981Z,1002.39
2017-10-19T02:15:56.978Z,1002.39
2017-10-19T02:16:56.986Z,1002.37
2017-10-19T02:17:56.973Z,1002.38
2017-10-19T02:18:56.977Z,1002.37
2017-10-19T02:19:56.971Z,1002.39
2017-10-19T02:20:56.967Z,1002.37
2017-10-19T02:21:56.966Z,1002.40
2017-10-19T02:22:56.965Z,1002.42
2017-10-19T02:23:56.962Z,1002.40
2017-10-19T02:24:56.963Z,1002.41
2017-10-19T02:25:56.959Z,1002.42
2017-10-19T02:26:56.958Z,1002.43
2017-10-19T02:27:56.958Z,1002.43
2017-10-19T02:28:56.954Z,1002.45
2017-10-19T02:29:56.953Z,1002.45
2017-10-19T02:30:56.949Z,1002.44
2017-10-19T02:31:56.948Z,1002.40
2017-10-19T02:32:56.961Z,1002.40
2017-10-19T02:33:56.952Z,1002.44
2017-10-19T02:34:56.941Z,1002.43
2017-10-19T02:35:56.940Z,1002.44
2017-10-19T02:36:56.944Z,1002.45
2017-10-19T02:37:56.935Z,1002.45
2017-10-19T02:38:56.934Z,1002.48
2017-10-19T02:39:56.932Z,1002.47
2017-10-19T02:40:56.929Z,1002.45
2017-10-19T02:41:56.929Z,1002.43
2017-10-19T02:42:56.925Z,1002.44
2017-10-19T02:43:56.923Z,1002.40
2017-10-19T02:44:56.920Z,1002.37
2017-10-19T02:45:56.918Z,1002.35
2017-10-19T02:46:56.918Z,1002.35
2017-10-19T02:47:56.916Z,1002.38
2017-10-19T02:48:56.911Z,1002.36
2017-10-19T02:49:56.910Z,1002.34
2017-10-19T02:50:56.910Z,1002.32
2017-10-19T02:51:56.907Z,1002.32
2017-10-19T02:52:56.905Z,1002.32
2017-10-19T02:53:56.902Z,1002.30
2017-10-19T02:54:56.901Z,1002.30
2017-10-19T02:55:56.898Z,1002.30
2017-10-19T02:56:56.897Z,1002.33
2017-10-19T02:57:56.893Z,1002.31
2017-10-19T02:58:56.892Z,1002.27
2017-10-19T02:59:56.889Z,1002.31
2017-10-19T03:00:56.888Z,1002.28
2017-10-19T03:01:56.888Z,1002.28
2017-10-19T03:02:56.885Z,1002.32
2017-10-19T03:03:56.883Z,1002.32
2017-10-19T03:04:56.881Z,1002.31
2017-10-19T03:05:56.879Z,1002.36
2017-10-19T03:06:56.876Z,1002.38
2017-10-19T03:07:56.873Z,1002.32
2017-10-19T03:08:56.871Z,1002.30
2017-10-19T03:09:56.869Z,1002.32
2017-10-19T03:10:56.867Z,1002.31
2017-10-19T03:11:56.866Z,1002.23
2017-10-19T03:12:56.864Z,1002.22
2017-10-19T03:13:56.861Z,1002.21
2017-10-19T03:14:56.859Z,1002.19
2017-10-19T03:15:56.861Z,1002.22
2017-10-19T03:16:56.853Z,1002.20
2017-10-19T03:17:56.851Z,1002.18
2017-10-19T03:18:56.862Z,1002.19
2017-10-19T03:19:56.868Z,1002.18
2017-10-19T03:20:56.846Z,1002.17
2017-10-19T03:21:56.843Z,1002.15
2017-10-19T03:22:56.842Z,1002.17
2017-10-19T03:23:56.840Z,1002.13
2017-10-19T03:24:56.837Z,1002.16
2017-10-19T03:25:56.835Z,1002.13
2017-10-19T03:26:56.833Z,1002.13
2017-10-19T03:27:56.832Z,1002.10
2017-10-19T03:28:56.830Z,1002.10
2017-10-19T03:29:56.829Z,1002.14
2017-10-19T03:30:56.830Z,1002.11
2017-10-19T03:31:56.823Z,1002.08
2017-10-19T03:32:56.820Z,1002.12
2017-10-19T03:33:56.819Z,1002.07
2017-10-19T03:34:56.816Z,1002.04
2017-10-19T03:35:56.815Z,1002.03
2017-10-19T03:36:56.811Z,1002.04
2017-10-19T03:37:56.810Z,1002.03
2017-10-19T03:38:56.808Z,1002.01
2017-10-19T03:39:56.806Z,1002.02
2017-10-19T03:40:56.803Z,1002.00
2017-10-19T03:41:56.802Z,1001.98
2017-10-19T03:42:56.809Z,1001.97
2017-10-19T03:43:56.798Z,1001.95
2017-10-19T03:44:56.793Z,1001.94
2017-10-19T03:45:56.792Z,1001.94
2017-10-19T03:46:56.789Z,1001.92
2017-10-19T03:47:56.788Z,1001.93
2017-10-19T03:48:56.789Z,1001.93
2017-10-19T03:49:56.782Z,1001.90
2017-10-19T03:50:56.782Z,1001.93
2017-10-19T03:51:56.782Z,1001.93
2017-10-19T03:52:56.776Z,1001.93
2017-10-19T03:53:56.774Z,1001.92
2017-10-19T03:54:56.777Z,1001.96
2017-10-19T03:55:56.771Z,1001.99
2017-10-19T03:56:56.773Z,1001.98
2017-10-19T03:57:56.766Z,1002.05
2017-10-19T03:58:56.764Z,1002.06
2017-10-19T03:59:56.762Z,1002.09
2017-10-19T04:00:56.760Z,1002.13
2017-10-19T04:01:56.757Z,1002.15
2017-10-19T04:02:56.754Z,1002.21
2017-10-19T04:03:56.752Z,1002.25
2017-10-19T04:04:56.749Z,1002.21
2017-10-19T04:05:56.748Z,1002.20
2017-10-19T04:06:56.746Z,1002.15
2017-10-19T04:07:56.743Z,1002.15
2017-10-19T04:08:56.740Z,1002.11
2017-10-19T04:09:56.738Z,1002.06
2017-10-19T04:10:56.736Z,1002.04
2017-10-19T04:11:56.739Z,1002.07
2017-10-19T04:12:56.732Z,1002.08
2017-10-19T04:13:56.729Z,1002.07
2017-10-19T04:14:56.727Z,1002.16
2017-10-19T04:15:56.725Z,1002.20
2017-10-19T04:16:56.723Z,1002.26
2017-10-19T04:17:56.721Z,1002.26
2017-10-19T04:18:56.718Z,1002.26
2017-10-19T04:19:56.715Z,1002.21
2017-10-19T04:20:56.714Z,1002.20
2017-10-19T04:21:56.711Z,1002.18
2017-10-19T04:22:56.709Z,1002.18
2017-10-19T04:23:56.707Z,1002.21
2017-10-19T04:24:56.705Z,1002.19
2017-10-19T04:25:56.732Z,1002.14
2017-10-19T04:26:56.698Z,1002.11
2017-10-19T04:27:56.699Z,1002.14
2017-10-19T04:28:56.695Z,1002.08
2017-10-19T04:29:56.699Z,1002.05
2017-10-19T04:30:56.689Z,1002.05
2017-10-19T04:31:56.687Z,1002.05
2017-10-19T04:32:56.684Z,1002.05
2017-10-19T04:33:56.683Z,1002.08
2017-10-19T04:34:56.680Z,1002.07
2017-10-19T04:35:56.678Z,1002.10
2017-10-19T04:36:56.676Z,1002.14
2017-10-19T04:37:56.673Z,1002.09
2017-10-19T04:38:56.671Z,1002.09
2017-10-19T04:39:56.668Z,1002.07
2017-10-19T04:40:56.666Z,1002.07
2017-10-19T04:41:56.664Z,1002.07
2017-10-19T04:42:56.660Z,1002.07
2017-10-19T04:43:56.664Z,1002.05
2017-10-19T04:44:56.656Z,1002.05
2017-10-19T04:45:56.652Z,1002.06
2017-10-19T04:46:56.653Z,1002.11
2017-10-19T04:47:56.648Z,1002.08
2017-10-19T04:48:56.645Z,1002.06
2017-10-19T04:49:56.644Z,1002.07
2017-10-19T04:50:56.641Z,1002.05
2017-10-19T04:51:56.639Z,1002.05
2017-10-19T04:52:56.637Z,1002.04
2017-10-19T04:53:56.632Z,1002.04
2017-10-19T04:54:56.632Z,1002.05
2017-10-19T04:55:56.635Z,1002.07
2017-10-19T04:56:56.627Z,1002.04
2017-10-19T04:57:56.625Z,1001.98
2017-10-19T04:58:56.623Z,1001.98
2017-10-19T04:59:56.621Z,1001.96
2017-10-19T05:00:56.617Z,1001.93
2017-10-19T05:01:56.615Z,1001.93
2017-10-19T05:02:56.612Z,1001.94
2017-10-19T05:03:56.610Z,1001.92
2017-10-19T05:04:56.608Z,1001.86
2017-10-19T05:05:56.605Z,1001.84
2017-10-19T05:06:56.603Z,1001.80
2017-10-19T05:07:56.601Z,1001.82
2017-10-19T05:08:56.597Z,1001.80
2017-10-19T05:09:56.594Z,1001.78
2017-10-19T05:10:56.593Z,1001.77
2017-10-19T05:11:56.590Z,1001.76
2017-10-19T05:12:56.588Z,1001.75
2017-10-19T05:13:56.585Z,1001.75
2017-10-19T05:14:56.584Z,1001.75
2017-10-19T05:15:56.580Z,1001.76
2017-10-19T05:16:56.578Z,1001.80
2017-10-19T05:17:56.575Z,1001.75
2017-10-19T05:18:56.573Z,1001.76
2017-10-19T05:19:56.601Z,1001.75
2017-10-19T05:20:56.569Z,1001.73
2017-10-19T05:21:56.565Z,1001.78
2017-10-19T05:22:56.563Z,1001.75
2017-10-19T05:23:56.564Z,1001.74
2017-10-19T05:24:56.558Z,1001.71
2017-10-19T05:25:56.556Z,1001.71
2017-10-19T05:26:56.555Z,1001.69
2017-10-19T05:27:56.553Z,1001.73
2017-10-19T05:28:56.550Z,1001.76
2017-10-19T05:29:56.548Z,1001.76
2017-10-19T05:30:56.545Z,1001.83
2017-10-19T05:31:56.549Z,1001.85
2017-10-19T05:32:56.540Z,1001.84
2017-10-19T05:33:56.544Z,1001.86
2017-10-19T05:34:56.536Z,1001.85
2017-10-19T05:35:56.533Z,1001.83
2017-10-19T05:36:56.530Z,1001.86
2017-10-19T05:37:56.527Z,1001.82
2017-10-19T05:38:56.526Z,1001.89
2017-10-19T05:39:56.524Z,1001.93
2017-10-19T05:40:56.521Z,1001.87
2017-10-19T05:41:56.519Z,1001.95
2017-10-19T05:42:56.515Z,1001.87
2017-10-19T05:43:56.518Z,1001.90
2017-10-19T05:44:56.511Z,1001.89
2017-10-19T05:45:56.508Z,1001.89
2017-10-19T05:46:56.511Z,1001.81
2017-10-19T05:47:56.504Z,1001.87
2017-10-19T05:48:56.502Z,1001.88
2017-10-19T05:49:56.499Z,1001.85
2017-10-19T05:50:56.501Z,1001.90
2017-10-19T05:51:56.495Z,1001.86
2017-10-19T05:52:56.491Z,1001.88
2017-10-19T05:53:56.489Z,1001.86
2017-10-19T05:54:56.488Z,1001.87
2017-10-19T05:55:56.485Z,1001.82
2017-10-19T05:56:56.482Z,1001.84
2017-10-19T05:57:56.479Z,1001.82
2017-10-19T05:58:56.477Z,1001.83
2017-10-19T05:59:56.476Z,1001.81
2017-10-19T06:00:56.473Z,1001.82
2017-10-19T06:01:56.468Z,1001.79
2017-10-19T06:02:56.466Z,1001.81
2017-10-19T06:03:56.465Z,1001.79
2017-10-19T06:04:56.462Z,1001.83
2017-10-19T06:05:56.459Z,1001.81
2017-10-19T06:06:56.462Z,1001.80
2017-10-19T06:07:56.456Z,1001.82
2017-10-19T06:08:56.454Z,1001.82
2017-10-19T06:09:56.449Z,1001.83
2017-10-19T06:10:56.447Z,1001.81
2017-10-19T06:11:56.447Z,1001.78
2017-10-19T06:12:56.442Z,1001.82
2017-10-19T06:13:56.439Z,1001.85
2017-10-19T06:14:56.439Z,1001.84
2017-10-19T06:15:56.437Z,1001.84
2017-10-19T06:16:56.432Z,1001.83
2017-10-19T06:17:56.430Z,1001.89
2017-10-19T06:18:56.427Z,1001.88
2017-10-19T06:19:56.424Z,1001.89
2017-10-19T06:20:56.423Z,1001.89
2017-10-19T06:21:56.420Z,1001.94
2017-10-19T06:22:56.421Z,1001.98
2017-10-19T06:23:56.415Z,1002.02
2017-10-19T06:24:56.461Z,1002.02
2017-10-19T06:25:56.409Z,1002.05
2017-10-19T06:26:56.407Z,1002.03
2017-10-19T06:27:56.406Z,1002.00
2017-10-19T06:28:56.401Z,1002.02
2017-10-19T06:29:56.450Z,1002.02
2017-10-19T06:30:56.398Z,1002.01
2017-10-19T06:31:56.399Z,1002.00
2017-10-19T06:32:56.392Z,1002.05
2017-10-19T06:33:56.390Z,1002.02
2017-10-19T06:34:56.389Z,1002.06
2017-10-19T06:35:56.386Z,1002.06
2017-10-19T06:36:56.383Z,1002.05
2017-10-19T06:37:56.380Z,1002.09
2017-10-19T06:38:56.377Z,1002.04
2017-10-19T06:39:56.376Z,1002.09
2017-10-19T06:40:56.373Z,1002.10
2017-10-19T06:41:56.371Z,1002.12
2017-10-19T06:42:56.367Z,1002.14
2017-10-19T06:43:56.366Z,1002.20
2017-10-19T06:44:56.364Z,1002.16
2017-10-19T06:45:56.360Z,1002.16
2017-10-19T06:46:56.358Z,1002.13
2017-10-19T06:47:56.357Z,1002.15
2017-10-19T06:48:56.353Z,1002.14
2017-10-19T06:49:56.351Z,1002.12
2017-10-19T06:50:56.349Z,1002.13
2017-10-19T06:51:56.348Z,1002.09
2017-10-19T06:52:56.344Z,1002.09
2017-10-19T06:53:56.341Z,1002.12
2017-10-19T06:54:56.440Z,1002.14
2017-10-19T06:55:56.338Z,1002.12
2017-10-19T06:56:56.334Z,1002.14
2017-10-19T06:57:56.332Z,1002.15
2017-10-19T06:58:56.331Z,1002.15
2017-10-19T06:59:56.329Z,1002.15
2017-10-19T07:00:56.327Z,1002.16
2017-10-19T07:01:56.325Z,1002.15
2017-10-19T07:02:56.322Z,1002.15
2017-10-19T07:03:56.320Z,1002.15
2017-10-19T07:04:56.418Z,1002.15
2017-10-19T07:05:56.316Z,1002.17
2017-10-19T07:06:56.315Z,1002.19
2017-10-19T07:07:56.311Z,1002.17
2017-10-19T07:08:56.308Z,1002.20
2017-10-19T07:09:56.306Z,1002.20
2017-10-19T07:10:56.305Z,1002.17
2017-10-19T07:11:56.303Z,1002.20
2017-10-19T07:12:56.311Z,1002.20
2017-10-19T07:13:56.300Z,1002.20
2017-10-19T07:14:56.299Z,1002.21
2017-10-19T07:15:56.295Z,1002.24
2017-10-19T07:16:56.292Z,1002.23
2017-10-19T07:17:56.294Z,1002.27
2017-10-19T07:18:56.291Z,1002.27
2017-10-19T07:19:56.289Z,1002.24
2017-10-19T07:20:56.293Z,1002.22
2017-10-19T07:21:56.284Z,1002.23
2017-10-19T07:22:56.283Z,1002.23
2017-10-19T07:23:56.283Z,1002.27
2017-10-19T07:24:56.280Z,1002.26
2017-10-19T07:25:56.277Z,1002.27
2017-10-19T07:26:56.276Z,1002.25
2017-10-19T07:27:56.276Z,1002.24
2017-10-19T07:28:56.273Z,1002.24
2017-10-19T07:29:56.273Z,1002.25
2017-10-19T07:30:56.272Z,1002.19
2017-10-19T07:31:56.270Z,1002.24
2017-10-19T07:32:56.267Z,1002.22
2017-10-19T07:33:56.265Z,1002.18
2017-10-19T07:34:56.266Z,1002.18
2017-10-19T07:35:56.314Z,1002.17
2017-10-19T07:36:56.262Z,1002.10
2017-10-19T07:37:56.260Z,1002.15
2017-10-19T07:38:56.259Z,1002.10
2017-10-19T07:39:56.259Z,1002.08
2017-10-19T07:40:56.257Z,1002.10
2017-10-19T07:41:56.256Z,1002.08
2017-10-19T07:42:56.255Z,1002.12
2017-10-19T07:43:56.254Z,1002.07
2017-10-19T07:44:56.253Z,1002.08
2017-10-19T07:45:56.251Z,1002.12
2017-10-19T07:46:56.251Z,1002.10
2017-10-19T07:47:56.250Z,1002.12
2017-10-19T07:48:56.255Z,1002.11
2017-10-19T07:49:56.248Z,1002.13
2017-10-19T07:50:56.249Z,1002.14
2017-10-19T07:51:56.246Z,1002.19
2017-10-19T07:52:56.244Z,1002.16
2017-10-19T07:53:56.243Z,1002.16
2017-10-19T07:54:56.243Z,1002.17
2017-10-19T07:55:56.241Z,1002.18
2017-10-19T07:56:56.242Z,1002.17
2017-10-19T07:57:56.241Z,1002.16
2017-10-19T07:58:56.240Z,1002.16
2017-10-19T07:59:56.240Z,1002.21
2017-10-19T08:00:56.237Z,1002.18
2017-10-19T08:01:56.238Z,1002.19
2017-10-19T08:02:56.237Z,1002.20
2017-10-19T08:03:56.238Z,1002.22
2017-10-19T08:04:56.236Z,1002.21
2017-10-19T08:05:56.335Z,1002.24
2017-10-19T08:06:56.235Z,1002.25
2017-10-19T08:07:56.238Z,1002.27
2017-10-19T08:08:56.234Z,1002.22
2017-10-19T08:09:56.234Z,1002.23
2017-10-19T08:10:56.233Z,1002.26
2017-10-19T08:11:56.233Z,1002.27
2017-10-19T08:12:56.266Z,1002.26
2017-10-19T08:13:56.233Z,1002.30
2017-10-19T08:14:56.233Z,1002.29
2017-10-19T08:15:56.232Z,1002.33
2017-10-19T08:16:56.231Z,1002.31
2017-10-19T08:17:56.233Z,1002.31
2017-10-19T08:18:56.232Z,1002.31
2017-10-19T08:19:56.233Z,1002.30
2017-10-19T08:20:56.238Z,1002.29
2017-10-19T08:21:56.233Z,1002.29
2017-10-19T08:22:56.234Z,1002.29
2017-10-19T08:23:56.234Z,1002.27
2017-10-19T08:24:56.232Z,1002.32
2017-10-19T08:25:56.232Z,1002.27
2017-10-19T08:26:56.233Z,1002.27
2017-10-19T08:27:56.233Z,1002.27
2017-10-19T08:28:56.234Z,1002.22
2017-10-19T08:29:56.234Z,1002.22
2017-10-19T08:30:56.234Z,1002.25
2017-10-19T08:31:56.236Z,1002.25
2017-10-19T08:32:56.236Z,1002.24
2017-10-19T08:33:56.235Z,1002.25
2017-10-19T08:34:56.239Z,1002.27
2017-10-19T08:35:56.238Z,1002.23
2017-10-19T08:36:56.237Z,1002.24
2017-10-19T08:37:56.240Z,1002.24
2017-10-19T08:38:56.241Z,1002.22
2017-10-19T08:39:56.242Z,1002.24
2017-10-19T08:40:56.241Z,1002.26
2017-10-19T08:41:56.240Z,1002.21
2017-10-19T08:42:56.243Z,1002.27
2017-10-19T08:43:56.245Z,1002.21
2017-10-19T08:44:56.244Z,1002.26
2017-10-19T08:45:56.246Z,1002.22
2017-10-19T08:46:56.246Z,1002.22
2017-10-19T08:47:56.249Z,1002.23
2017-10-19T08:48:56.248Z,1002.28
2017-10-19T08:49:56.250Z,1002.27
2017-10-19T08:50:56.250Z,1002.30
2017-10-19T08:51:56.254Z,1002.35
2017-10-19T08:52:56.254Z,1002.37
2017-10-19T08:53:56.254Z,1002.37
2017-10-19T08:54:56.257Z,1002.39
2017-10-19T08:55:56.258Z,1002.40
2017-10-19T08:56:56.262Z,1002.38
2017-10-19T08:57:56.259Z,1002.38
2017-10-19T08:58:56.262Z,1002.41
2017-10-19T08:59:56.262Z,1002.42
2017-10-19T09:00:56.263Z,1002.39
2017-10-19T09:01:56.416Z,1002.36
2017-10-19T09:02:56.267Z,1002.37
2017-10-19T09:03:56.269Z,1002.38
2017-10-19T09:04:56.271Z,1002.37
2017-10-19T09:05:56.272Z,1002.35
2017-10-19T09:06:56.373Z,1002.33
2017-10-19T09:07:56.276Z,1002.35
2017-10-19T09:08:56.277Z,1002.37
2017-10-19T09:09:56.279Z,1002.39
2017-10-19T09:10:56.282Z,1002.39
2017-10-19T09:11:56.283Z,1002.38
2017-10-19T09:12:56.291Z,1002.38
2017-10-19T09:13:56.287Z,1002.40
2017-10-19T09:14:56.289Z,1002.38
2017-10-19T09:15:56.291Z,1002.39
2017-10-19T09:16:56.343Z,1002.40
2017-10-19T09:17:56.300Z,1002.35
2017-10-19T09:18:56.297Z,1002.39
2017-10-19T09:19:56.300Z,1002.34
2017-10-19T09:20:56.304Z,1002.38
2017-10-19T09:21:56.304Z,1002.36
2017-10-19T09:22:56.306Z,1002.41
2017-10-19T09:23:56.309Z,1002.37
2017-10-19T09:24:56.311Z,1002.39
2017-10-19T09:25:56.313Z,1002.62
2017-10-19T09:26:56.315Z,1002.84
2017-10-19T09:27:56.321Z,1002.97
2017-10-19T09:28:56.321Z,1003.05
2017-10-19T09:29:56.325Z,1003.06
2017-10-19T09:30:56.328Z,1003.07
2017-10-19T09:31:56.334Z,1003.02
2017-10-19T09:32:56.336Z,1003.15
2017-10-19T09:33:56.342Z,1003.09
2017-10-19T09:34:56.346Z,1003.13
2017-10-19T09:35:56.354Z,1003.07
2017-10-19T09:36:56.359Z,1003.05
2017-10-19T09:37:56.365Z,1003.10
2017-10-19T09:38:56.372Z,1003.02
2017-10-19T09:39:56.379Z,1003.06
2017-10-19T09:40:56.384Z,1003.06
2017-10-19T09:41:56.393Z,1003.06
2017-10-19T09:42:56.400Z,1003.05
2017-10-19T09:43:56.407Z,1003.06
2017-10-19T09:44:56.417Z,1003.12
2017-10-19T09:45:56.425Z,1003.13
2017-10-19T09:46:56.534Z,1003.11
2017-10-19T09:47:56.443Z,1003.11
2017-10-19T09:48:56.450Z,1003.13
2017-10-19T09:49:56.460Z,1003.11
2017-10-19T09:50:56.468Z,1003.08
2017-10-19T09:51:56.482Z,1003.05
2017-10-19T09:52:56.486Z,1003.05
2017-10-19T09:53:56.497Z,1003.05
2017-10-19T09:54:56.507Z,1003.05
2017-10-19T09:55:56.516Z,1003.05
2017-10-19T09:56:56.526Z,1003.00
2017-10-19T09:57:56.535Z,1003.01
2017-10-19T09:58:56.546Z,1003.02
2017-10-19T09:59:56.560Z,1002.98
2017-10-19T10:00:56.565Z,1003.00
2017-10-19T10:01:56.577Z,1002.96
2017-10-19T10:02:56.588Z,1002.99
2017-10-19T10:03:56.597Z,1003.03
2017-10-19T10:04:56.609Z,1003.00
2017-10-19T10:05:56.619Z,1003.01
2017-10-19T10:06:56.630Z,1003.03
2017-10-19T10:07:56.641Z,1002.99
2017-10-19T10:08:56.652Z,1002.97
2017-10-19T10:09:56.663Z,1003.00
2017-10-19T10:10:56.673Z,1002.98
2017-10-19T10:11:56.686Z,1002.98
2017-10-19T10:12:56.696Z,1002.74
2017-10-19T10:13:56.708Z,1002.59
2017-10-19T10:14:56.720Z,1002.47
2017-10-19T10:15:56.730Z,1002.45
2017-10-19T10:16:56.740Z,1002.41
2017-10-19T10:17:56.753Z,1002.51
2017-10-19T10:18:56.764Z,1002.41
2017-10-19T10:19:56.774Z,1002.28
2017-10-19T10:20:56.785Z,1002.25
2017-10-19T10:21:56.796Z,1002.26
2017-10-19T10:22:56.805Z,1002.23
2017-10-19T10:23:56.815Z,1002.24
2017-10-19T10:24:56.826Z,1002.18
2017-10-19T10:25:56.838Z,1002.22
2017-10-19T10:26:56.846Z,1002.23
2017-10-19T10:27:56.856Z,1002.21
2017-10-19T10:28:56.865Z,1002.26
2017-10-19T10:29:56.874Z,1002.24
2017-10-19T10:30:56.883Z,1002.24
2017-10-19T10:31:56.891Z,1002.21
2017-10-19T10:32:56.898Z,1002.24
2017-10-19T10:33:56.908Z,1002.31
2017-10-19T10:34:56.918Z,1002.34
2017-10-19T10:35:56.927Z,1002.18
2017-10-19T10:36:56.932Z,1002.18
2017-10-19T10:37:56.940Z,1002.18
2017-10-19T10:38:56.950Z,1002.21
2017-10-19T10:39:56.958Z,1002.21
2017-10-19T10:40:56.963Z,1002.18
2017-10-19T10:41:56.973Z,1002.06
2017-10-19T10:42:56.979Z,1002.04
2017-10-19T10:43:56.987Z,1002.05
2017-10-19T10:44:56.995Z,1002.05
2017-10-19T10:45:57.027Z,1002.02
2017-10-19T10:46:57.010Z,1001.94
2017-10-19T10:47:57.017Z,1001.91
2017-10-19T10:48:57.024Z,1001.85
2017-10-19T10:49:57.031Z,1001.82
2017-10-19T10:50:57.040Z,1001.82
2017-10-19T10:51:57.048Z,1001.77
2017-10-19T10:52:57.054Z,1001.80
2017-10-19T10:53:57.059Z,1001.76
2017-10-19T10:54:57.067Z,1001.78
2017-10-19T10:55:57.076Z,1001.74
2017-10-19T10:56:57.082Z,1001.81
2017-10-19T10:57:57.087Z,1001.81
2017-10-19T10:58:57.095Z,1001.83
2017-10-19T10:59:57.104Z,1001.81
2017-10-19T11:00:57.109Z,1001.83
2017-10-19T11:01:57.115Z,1001.82
2017-10-19T11:02:57.121Z,1001.84
2017-10-19T11:03:57.129Z,1001.87
2017-10-19T11:04:57.135Z,1001.83
2017-10-19T11:05:57.142Z,1001.82
2017-10-19T11:06:57.148Z,1001.85
2017-10-19T11:07:57.155Z,1001.82
2017-10-19T11:08:57.160Z,1001.78
2017-10-19T11:09:57.167Z,1001.79
2017-10-19T11:10:57.179Z,1001.72
2017-10-19T11:11:57.181Z,1001.72
2017-10-19T11:12:57.185Z,1001.71
2017-10-19T11:13:57.192Z,1001.72
2017-10-19T11:14:57.200Z,1001.72
2017-10-19T11:15:57.205Z,1001.68
2017-10-19T11:16:57.216Z,1001.70
2017-10-19T11:17:57.218Z,1001.64
2017-10-19T11:18:57.277Z,1001.63
2017-10-19T11:19:57.231Z,1001.58
2017-10-19T11:20:57.237Z,1001.60
2017-10-19T11:21:57.243Z,1001.58
2017-10-19T11:22:57.249Z,1001.60
2017-10-19T11:23:57.259Z,1001.53
2017-10-19T11:24:57.262Z,1001.52
2017-10-19T11:25:57.268Z,1001.52
2017-10-19T11:26:57.276Z,1001.52
2017-10-19T11:27:57.281Z,1001.47
2017-10-19T11:28:57.288Z,1001.46
2017-10-19T11:29:57.295Z,1001.41
2017-10-19T11:30:57.302Z,1001.42
2017-10-19T11:31:57.309Z,1001.41
2017-10-19T11:32:57.314Z,1001.43
2017-10-19T11:33:57.320Z,1001.45
2017-10-19T11:34:57.326Z,1001.42
2017-10-19T11:35:57.335Z,1001.44
2017-10-19T11:36:57.339Z,1001.45
2017-10-19T11:37:57.346Z,1001.47
2017-10-19T11:38:57.354Z,1001.51
2017-10-19T11:39:57.359Z,1001.48
2017-10-19T11:40:57.365Z,1001.46
2017-10-19T11:41:57.373Z,1001.43
2017-10-19T11:42:57.379Z,1001.41
2017-10-19T11:43:57.386Z,1001.38
2017-10-19T11:44:57.395Z,1001.37
2017-10-19T11:45:57.398Z,1001.37
2017-10-19T11:46:57.407Z,1001.33
2017-10-19T11:47:57.411Z,1001.34
2017-10-19T11:48:57.417Z,1001.31
2017-10-19T11:49:57.425Z,1001.28
2017-10-19T11:50:57.431Z,1001.27
2017-10-19T11:51:57.437Z,1001.24
2017-10-19T11:52:57.443Z,1001.20
2017-10-19T11:53:57.450Z,1001.18
2017-10-19T11:54:57.456Z,1001.14
2017-10-19T11:55:57.464Z,1001.17
2017-10-19T11:56:57.468Z,1001.17
2017-10-19T11:57:57.475Z,1001.11
2017-10-19T11:58:57.487Z,1001.13
2017-10-19T11:59:57.487Z,1001.11
2017-10-19T12:00:57.494Z,1001.09
2017-10-19T12:01:57.501Z,1001.12
2017-10-19T12:02:57.508Z,1001.02
2017-10-19T12:03:57.514Z,1000.99
2017-10-19T12:04:57.520Z,1000.99
2017-10-19T12:05:57.527Z,1000.98